createdAt,value
2018-11-03T00:03:20.338Z,14
2018-11-03T00:08:22.765Z,14
2018-11-03T00:13:25.201Z,14
2018-11-03T00:18:27.646Z,14
2018-11-03T00:23:30.114Z,12
2018-11-03T00:28:32.560Z,13
2018-11-03T00:33:34.969Z,13
2018-11-03T00:38:37.417Z,14
2018-11-03T00:43:39.846Z,14
2018-11-03T00:48:42.288Z,19
2018-11-03T00:53:44.836Z,21
2018-11-03T01:03:49.609Z,17
2018-11-03T01:08:52.084Z,19
2018-11-03T01:13:54.490Z,18
2018-11-03T01:18:56.944Z,15
2018-11-03T01:23:59.368Z,15
2018-11-03T01:29:01.808Z,14
2018-11-03T01:34:04.269Z,15
2018-11-03T01:39:06.684Z,16
2018-11-03T01:44:09.142Z,15
2018-11-03T01:49:11.561Z,17
2018-11-03T01:54:14.009Z,17
2018-11-03T01:59:16.442Z,18
2018-11-03T02:04:18.877Z,15
2018-11-03T02:09:21.423Z,17
2018-11-03T02:14:23.754Z,19
2018-11-03T02:19:26.208Z,16
2018-11-03T02:24:28.760Z,14
2018-11-03T02:29:31.078Z,16
2018-11-03T02:34:33.523Z,16
2018-11-03T02:39:35.996Z,13
2018-11-03T02:44:38.393Z,16
2018-11-03T02:49:40.846Z,12
2018-11-03T02:54:43.311Z,13
2018-11-03T02:59:45.732Z,15
2018-11-03T03:04:48.164Z,13
2018-11-03T03:09:50.650Z,16
2018-11-03T03:14:53.043Z,14
2018-11-03T03:19:55.543Z,15
2018-11-03T03:24:57.964Z,13
2018-11-03T03:30:00.399Z,13
2018-11-03T03:35:02.832Z,16
2018-11-03T03:40:05.260Z,17
2018-11-03T03:45:07.710Z,13
2018-11-03T03:50:10.133Z,17
2018-11-03T03:55:12.575Z,17
2018-11-03T04:00:15.033Z,16
2018-11-03T04:05:17.450Z,18
2018-11-03T04:10:19.880Z,21
2018-11-03T04:15:22.317Z,20
2018-11-03T04:20:24.762Z,20
2018-11-03T04:25:27.292Z,18
2018-11-03T04:30:29.797Z,18
2018-11-03T04:35:32.090Z,17
2018-11-03T04:40:34.630Z,22
2018-11-03T04:45:37.079Z,22
2018-11-03T04:50:39.400Z,21
2018-11-03T04:55:41.849Z,20
2018-11-03T05:00:44.287Z,21
2018-11-03T05:05:46.742Z,21
2018-11-03T05:10:49.161Z,23
2018-11-03T05:15:51.759Z,23
2018-11-03T05:25:56.542Z,22
2018-11-03T05:30:58.939Z,20
2018-11-03T05:36:01.533Z,23
2018-11-03T05:41:03.799Z,20
2018-11-03T05:46:06.241Z,22
2018-11-03T05:51:08.739Z,21
2018-11-03T06:01:13.649Z,22
2018-11-03T06:06:16.014Z,23
2018-11-03T06:11:18.442Z,24
2018-11-03T06:16:20.886Z,24
2018-11-03T06:21:23.319Z,23
2018-11-03T06:26:25.765Z,22
2018-11-03T06:31:28.200Z,25
2018-11-03T06:36:30.656Z,25
2018-11-03T06:41:33.075Z,24
2018-11-03T06:46:35.633Z,27
2018-11-03T06:51:37.981Z,28
2018-11-03T06:56:40.408Z,27
2018-11-03T07:01:42.857Z,27
2018-11-03T07:06:45.343Z,29
2018-11-03T07:11:47.814Z,30
2018-11-03T07:16:50.158Z,35
2018-11-03T07:21:52.817Z,33
2018-11-03T07:26:55.050Z,34
2018-11-03T07:31:57.486Z,36
2018-11-03T07:36:59.924Z,28
2018-11-03T07:42:02.372Z,31
2018-11-03T07:47:04.818Z,28
2018-11-03T07:52:07.250Z,29
2018-11-03T07:57:09.680Z,30
2018-11-03T08:02:12.252Z,30
2018-11-03T08:07:14.598Z,26
2018-11-03T08:12:17.004Z,27
2018-11-03T08:17:19.444Z,27
2018-11-03T08:22:21.930Z,29
2018-11-03T08:27:24.328Z,30
2018-11-03T08:32:26.773Z,29
2018-11-03T08:42:31.661Z,28
2018-11-03T08:47:34.095Z,31
2018-11-03T08:52:36.521Z,28
2018-11-03T08:57:38.966Z,32
2018-11-03T09:02:41.435Z,30
2018-11-03T09:07:43.950Z,36
2018-11-03T09:12:46.319Z,32
2018-11-03T09:17:48.741Z,31
2018-11-03T09:22:51.197Z,30
2018-11-03T09:27:53.630Z,29
2018-11-03T09:32:56.059Z,28
2018-11-03T09:37:58.598Z,26
2018-11-03T09:43:01.093Z,28
2018-11-03T09:48:03.379Z,26
2018-11-03T09:53:05.808Z,28
2018-11-03T09:58:08.289Z,28
2018-11-03T10:03:10.713Z,29
2018-11-03T10:08:13.127Z,27
2018-11-03T10:13:15.580Z,30
2018-11-03T10:18:18.002Z,29
2018-11-03T10:23:20.448Z,34
2018-11-03T10:28:22.884Z,31
2018-11-03T10:33:25.351Z,29
2018-11-03T10:38:27.778Z,31
2018-11-03T10:43:30.272Z,32
2018-11-03T10:48:32.651Z,33
2018-11-03T10:53:35.088Z,32
2018-11-03T10:58:37.543Z,35
2018-11-03T11:03:40.117Z,35
2018-11-03T11:08:42.411Z,31
2018-11-03T11:13:44.845Z,30
2018-11-03T11:18:47.352Z,32
2018-11-03T11:23:49.765Z,31
2018-11-03T11:28:52.187Z,36
2018-11-03T11:33:54.609Z,29
2018-11-03T11:38:57.046Z,36
2018-11-03T11:43:59.507Z,32
2018-11-03T11:49:01.951Z,30
2018-11-03T11:54:04.401Z,28
2018-11-03T11:59:06.878Z,37
2018-11-03T12:04:09.272Z,31
2018-11-03T12:09:11.687Z,29
2018-11-03T12:14:14.182Z,27
2018-11-03T12:19:16.568Z,29
2018-11-03T12:24:19.006Z,33
2018-11-03T12:29:21.449Z,33
2018-11-03T12:34:23.883Z,31
2018-11-03T12:39:26.393Z,33
2018-11-03T12:44:28.782Z,28
2018-11-03T12:49:31.209Z,28
2018-11-03T12:54:33.726Z,28
2018-11-03T12:59:36.083Z,27
2018-11-03T13:04:38.533Z,26
2018-11-03T13:09:41.195Z,29
2018-11-03T13:14:43.448Z,28
2018-11-03T13:19:45.873Z,28
2018-11-03T13:24:48.337Z,26
2018-11-03T13:29:50.760Z,28
2018-11-03T13:34:53.213Z,28
2018-11-03T13:39:55.617Z,29
2018-11-03T13:44:58.062Z,31
2018-11-03T13:50:00.503Z,29
2018-11-03T13:55:02.968Z,34
2018-11-03T14:00:05.380Z,30
2018-11-03T14:05:07.814Z,32
2018-11-03T14:10:10.276Z,32
2018-11-03T14:15:12.731Z,33
2018-11-03T14:20:15.139Z,36
2018-11-03T14:25:17.589Z,34
2018-11-03T14:30:20.015Z,34
2018-11-03T14:35:22.452Z,39
2018-11-03T14:40:24.910Z,36
2018-11-03T14:45:27.459Z,38
2018-11-03T14:50:29.818Z,37
2018-11-03T14:55:32.210Z,36
2018-11-03T15:00:34.695Z,36
2018-11-03T15:05:37.113Z,39
2018-11-03T15:10:39.542Z,38
2018-11-03T15:15:42.089Z,37
2018-11-03T15:20:44.434Z,38
2018-11-03T15:25:46.945Z,38
2018-11-03T15:30:49.308Z,39
2018-11-03T15:35:51.740Z,44
2018-11-03T15:40:54.245Z,44
2018-11-03T15:45:56.623Z,49
2018-11-03T15:50:59.053Z,45
2018-11-03T15:56:01.513Z,46
2018-11-03T16:01:03.971Z,53
2018-11-03T16:06:06.406Z,55
2018-11-03T16:11:08.826Z,50
2018-11-03T16:16:11.252Z,53
2018-11-03T16:21:13.760Z,54
2018-11-03T16:26:16.155Z,58
2018-11-03T16:31:18.578Z,50
2018-11-03T16:36:21.035Z,55
2018-11-03T16:41:23.462Z,55
2018-11-03T16:46:25.891Z,55
2018-11-03T16:51:28.344Z,56
2018-11-03T16:56:30.783Z,55
2018-11-03T17:01:33.214Z,54
2018-11-03T17:06:35.696Z,62
2018-11-03T17:11:38.092Z,61
2018-11-03T17:16:40.535Z,59
2018-11-03T17:21:43.008Z,59
2018-11-03T17:26:45.429Z,56
2018-11-03T17:31:47.929Z,58
2018-11-03T17:36:50.301Z,55
2018-11-03T17:41:52.742Z,54
2018-11-03T17:46:55.169Z,58
2018-11-03T17:51:57.656Z,61
2018-11-03T17:57:00.083Z,61
2018-11-03T18:02:02.521Z,60
2018-11-03T18:07:04.959Z,60
2018-11-03T18:12:07.376Z,52
2018-11-03T18:17:09.819Z,58
2018-11-03T18:22:12.250Z,59
2018-11-03T18:27:14.846Z,66
2018-11-03T18:32:17.142Z,62
2018-11-03T18:37:19.585Z,59
2018-11-03T18:42:22.013Z,62
2018-11-03T18:47:24.458Z,63
2018-11-03T18:52:26.899Z,60
2018-11-03T18:57:29.362Z,66
2018-11-03T19:02:31.920Z,62
2018-11-03T19:07:34.212Z,62
2018-11-03T19:12:36.705Z,67
2018-11-03T19:17:39.108Z,68
2018-11-03T19:22:41.551Z,64
2018-11-03T19:27:43.966Z,61
2018-11-03T19:32:46.411Z,66
2018-11-03T19:37:48.923Z,68
2018-11-03T19:42:51.310Z,69
2018-11-03T19:47:53.736Z,66
2018-11-03T19:52:56.169Z,67
2018-11-03T19:57:58.715Z,67
2018-11-03T20:03:01.173Z,70
2018-11-03T20:08:03.508Z,65
2018-11-03T20:13:05.954Z,67
2018-11-03T20:18:08.519Z,64
2018-11-03T20:23:10.803Z,60
2018-11-03T20:28:13.265Z,65
2018-11-03T20:33:15.691Z,58
2018-11-03T20:38:18.151Z,61
2018-11-03T20:43:20.691Z,61
2018-11-03T20:48:23.013Z,65
2018-11-03T20:53:25.446Z,62
2018-11-03T20:58:27.899Z,64
2018-11-03T21:03:30.595Z,60
2018-11-03T21:08:32.777Z,59
2018-11-03T21:13:35.215Z,60
2018-11-03T21:18:37.795Z,63
2018-11-03T21:23:40.120Z,56
2018-11-03T21:28:42.538Z,54
2018-11-03T21:33:45.061Z,52
2018-11-03T21:38:47.445Z,49
2018-11-03T21:43:49.859Z,44
2018-11-03T21:48:52.294Z,46
2018-11-03T21:53:54.731Z,48
2018-11-03T21:58:57.173Z,44
2018-11-03T22:03:59.651Z,35
2018-11-03T22:09:02.049Z,44
2018-11-03T22:14:04.492Z,41
2018-11-03T22:19:06.947Z,35
2018-11-03T22:24:09.418Z,28
2018-11-03T22:29:11.846Z,24
2018-11-03T22:34:14.242Z,27
2018-11-03T22:39:16.690Z,33
2018-11-03T22:44:19.177Z,27
2018-11-03T22:49:21.564Z,22
2018-11-03T22:54:24.016Z,37
2018-11-03T22:59:26.544Z,27
2018-11-03T23:04:28.883Z,24
2018-11-03T23:09:31.396Z,24
2018-11-03T23:14:33.766Z,26
2018-11-03T23:19:36.215Z,25
2018-11-03T23:24:38.659Z,26
2018-11-03T23:29:41.232Z,31
2018-11-03T23:34:43.578Z,31
2018-11-03T23:39:45.967Z,33
2018-11-03T23:44:48.452Z,35
2018-11-03T23:49:50.880Z,30
2018-11-03T23:54:53.284Z,32
2018-11-03T23:59:55.817Z,31
